Time;durP1;ratioP1;P1;durP2;ratioP2;P2;SDS_P1;SDS_P2;PMS_P1;PMS_P2;Temp;Humidity;BMP_temperature;BMP_pressure;BME280_temperature;BME280_humidity;BME280_pressure;Samples;Min_cycle;Max_cycle;Signal;HPM_P1;HPM_P2
2022/09/30 00:01:10;;;;;;;7.15;4.85;;;;;;;9.38;70.30;95779.16;6196618;23;20016;-81
2022/09/30 00:03:37;;;;;;;7.53;4.80;;;;;;;9.33;70.29;95788.50;6196740;23;20016;-79
2022/09/30 00:06:07;;;;;;;5.85;4.88;;;;;;;9.26;70.48;95797.09;6197981;23;20048;-80
2022/09/30 00:08:37;;;;;;;6.43;4.55;;;;;;;9.23;70.98;95794.09;6196748;23;20028;-81
2022/09/30 00:11:07;;;;;;;6.88;4.53;;;;;;;9.22;70.91;95790.66;6199776;23;20044;-80
2022/09/30 00:13:38;;;;;;;5.50;4.65;;;;;;;9.19;70.94;95795.47;6199001;23;20052;-81
2022/09/30 00:16:06;;;;;;;6.90;5.32;;;;;;;9.15;70.87;95797.63;6200684;23;20072;-81
2022/09/30 00:18:35;;;;;;;6.22;5.40;;;;;;;9.14;71.17;95796.03;6198569;23;20069;-82
2022/09/30 00:21:03;;;;;;;6.50;4.78;;;;;;;9.14;71.01;95790.03;6198275;23;20021;-81
2022/09/30 00:23:31;;;;;;;7.00;5.50;;;;;;;9.11;71.03;95790.41;6199971;23;20313;-83
2022/09/30 00:26:02;;;;;;;6.47;5.43;;;;;;;9.07;71.03;95783.00;6200752;23;20021;-82
2022/09/30 00:28:30;;;;;;;9.38;6.32;;;;;;;9.01;71.04;95775.97;6202013;23;20075;-82
2022/09/30 00:30:59;;;;;;;9.40;6.38;;;;;;;8.94;71.29;95774.31;6199895;23;20044;-81
2022/09/30 00:33:26;;;;;;;8.88;5.95;;;;;;;8.90;71.34;95778.28;6201198;23;20025;-81
2022/09/30 00:35:54;;;;;;;7.13;5.70;;;;;;;8.86;71.40;95778.69;6200076;23;20027;-82
2022/09/30 00:38:22;;;;;;;7.68;6.55;;;;;;;8.83;71.59;95780.84;6199232;23;20024;-81
2022/09/30 00:40:50;;;;;;;8.20;5.57;;;;;;;8.80;71.28;95783.84;6198222;23;20036;-83
2022/09/30 00:43:38;;;;;;;6.22;5.30;;;;;;;8.75;71.58;95788.81;6199758;23;20103;-81
2022/09/30 00:46:13;;;;;;;7.07;4.80;;;;;;;8.72;71.21;95796.97;6199454;23;20045;-79
2022/09/30 00:48:41;;;;;;;9.38;5.22;;;;;;;8.71;71.71;95796.19;6199717;23;20481;-82
2022/09/30 00:51:09;;;;;;;8.88;5.88;;;;;;;8.70;71.60;95791.16;6197037;23;20047;-81
2022/09/30 00:53:45;;;;;;;8.43;6.70;;;;;;;8.65;71.89;95797.72;6197515;23;20097;-79
2022/09/30 00:56:17;;;;;;;10.10;6.65;;;;;;;8.65;72.00;95802.13;6197048;23;20025;-83
2022/09/30 00:59:03;;;;;;;10.05;6.28;;;;;;;8.61;71.99;95801.69;5139605;27;20386;-83
2022/09/30 01:01:31;;;;;;;9.68;6.18;;;;;;;8.60;72.05;95799.31;5137606;28;20044;-85
2022/09/30 01:04:01;;;;;;;9.57;6.72;;;;;;;8.63;72.10;95810.09;5139634;27;20047;-81
2022/09/30 01:06:29;;;;;;;9.43;7.13;;;;;;;8.65;72.13;95815.13;5140725;27;20501;-84
2022/09/30 01:08:58;;;;;;;9.77;6.22;;;;;;;8.64;71.91;95816.94;5142502;27;20047;-84
2022/09/30 01:11:28;;;;;;;10.02;6.50;;;;;;;8.65;71.87;95812.53;5141431;27;20044;-80
2022/09/30 01:14:01;;;;;;;7.97;5.60;;;;;;;8.63;71.80;95815.31;5141086;27;20142;-82
2022/09/30 01:16:53;;;;;;;12.20;6.60;;;;;;;8.58;72.13;95807.28;5140398;27;20420;-79
2022/09/30 01:20:07;;;;;;;10.07;6.60;;;;;;;8.53;72.16;95809.66;5139206;27;20059;-83
2022/09/30 01:22:43;;;;;;;10.43;7.65;;;;;;;8.48;72.36;95817.19;5110855;27;20043;-86
2022/09/30 01:25:39;;;;;;;11.05;6.40;;;;;;;8.48;74.13;95822.38;5139062;27;20047;-79
2022/09/30 01:28:33;;;;;;;10.63;6.90;;;;;;;8.47;72.94;95817.41;5138072;27;20440;-78
2022/09/30 01:31:13;;;;;;;10.73;7.15;;;;;;;8.45;73.00;95822.78;5136492;27;20527;-79
2022/09/30 01:33:50;;;;;;;9.35;6.63;;;;;;;8.43;73.08;95822.16;5137019;27;20051;-78
2022/09/30 01:36:28;;;;;;;10.35;7.63;;;;;;;8.40;73.15;95819.91;5136680;27;20050;-80
2022/09/30 01:39:07;;;;;;;7.30;6.22;;;;;;;8.44;73.79;95827.16;5136758;27;20130;-81
2022/09/30 01:41:42;;;;;;;6.70;5.70;;;;;;;8.49;73.82;95824.00;5134393;27;20043;-79
2022/09/30 01:44:16;;;;;;;8.70;6.88;;;;;;;8.48;72.96;95835.38;5135313;27;20059;-79
2022/09/30 01:46:52;;;;;;;7.93;6.38;;;;;;;8.46;72.74;95824.38;5134516;27;20096;-82
2022/09/30 01:49:27;;;;;;;9.10;7.22;;;;;;;8.41;72.69;95822.34;5134243;27;20051;-79
2022/09/30 01:52:01;;;;;;;9.45;6.78;;;;;;;8.42;73.01;95828.34;5133476;27;20055;-77
2022/09/30 01:54:37;;;;;;;10.20;6.35;;;;;;;8.44;72.81;95819.38;5133367;27;20053;-83
2022/09/30 01:57:10;;;;;;;7.75;5.47;;;;;;;8.46;73.05;95824.38;5133061;27;20096;-80
2022/09/30 01:59:45;;;;;;;9.73;6.95;;;;;;;8.43;72.16;95824.75;5133206;27;20043;-79
2022/09/30 02:02:18;;;;;;;10.68;6.85;;;;;;;8.41;72.51;95824.13;5131802;27;20055;-79
2022/09/30 02:04:52;;;;;;;9.45;6.57;;;;;;;8.39;72.19;95818.28;5140395;27;20043;-84
2022/09/30 02:07:24;;;;;;;11.13;6.75;;;;;;;8.35;72.25;95827.44;5140300;27;20052;-80
2022/09/30 02:09:54;;;;;;;;;;;;;;;8.37;73.03;95838.47;5128912;27;20105;-76
2022/09/30 02:12:27;;;;;;;8.00;5.90;;;;;;;8.36;72.26;95834.25;5125204;27;19926;-82
2022/09/30 02:15:01;;;;;;;10.40;6.50;;;;;;;8.34;72.80;95841.44;5125049;28;20047;-84
2022/09/30 02:17:34;;;;;;;7.82;6.20;;;;;;;8.38;74.84;95838.28;5124187;28;20055;-87
2022/09/30 02:20:06;;;;;;;8.15;6.28;;;;;;;8.39;72.86;95841.69;5163850;22;20046;-80
2022/09/30 02:22:43;;;;;;;9.63;5.93;;;;;;;8.37;73.26;95859.25;5055873;28;20056;-80
2022/09/30 02:25:19;;;;;;;7.28;5.03;;;;;;;8.37;73.07;95861.84;5057699;28;20045;-81
2022/09/30 02:27:50;;;;;;;9.48;6.13;;;;;;;8.37;73.26;95859.25;5057873;28;20056;-81
2022/09/30 02:30:19;;;;;;;7.75;5.65;;;;;;;8.36;72.54;95860.25;5056436;28;20477;-80
2022/09/30 02:32:51;;;;;;;7.80;5.65;;;;;;;8.33;72.91;95869.22;5057331;28;20514;-81
2022/09/30 02:35:25;;;;;;;9.95;6.57;;;;;;;8.31;72.74;95858.22;5057526;28;20045;-80
2022/09/30 02:37:57;;;;;;;8.40;5.97;;;;;;;8.27;72.22;95863.97;5057951;28;20045;-80
2022/09/30 02:40:31;;;;;;;8.30;6.22;;;;;;;8.22;72.40;95862.72;5057169;28;20146;-80
2022/09/30 02:42:59;;;;;;;7.93;5.43;;;;;;;8.21;72.37;95866.28;5057525;28;20083;-80
2022/09/30 02:45:31;;;;;;;8.43;6.60;;;;;;;8.20;72.39;95856.91;5057441;28;20059;-80
2022/09/30 02:48:09;;;;;;;8.37;5.90;;;;;;;8.18;72.32;95856.28;5055929;28;20064;-80
2022/09/30 02:50:44;;;;;;;8.52;5.35;;;;;;;8.14;72.47;95862.84;5055829;28;20327;-81
2022/09/30 02:53:21;;;;;;;8.70;5.45;;;;;;;8.09;72.68;95865.19;5056583;28;20049;-80
2022/09/30 02:56:13;;;;;;;7.95;5.05;;;;;;;8.10;72.71;95869.38;5056580;28;20049;-80
2022/09/30 02:58:42;;;;;;;6.85;4.97;;;;;;;8.08;72.47;95860.16;5057086;28;20044;-80
2022/09/30 03:01:12;;;;;;;8.73;5.20;;;;;;;8.07;72.49;95855.94;5056568;28;20576;-80
2022/09/30 03:03:43;;;;;;;6.68;5.10;;;;;;;8.04;72.37;95857.13;5055501;28;20479;-80
2022/09/30 03:06:11;;;;;;;9.82;6.05;;;;;;;8.00;72.27;95856.69;5055842;28;20130;-80
2022/09/30 03:08:41;;;;;;;10.07;5.65;;;;;;;7.96;72.27;95863.25;5055715;28;20057;-80
2022/09/30 03:11:14;;;;;;;8.18;5.72;;;;;;;7.96;72.36;95860.66;5069286;28;20491;-81
2022/09/30 03:14:02;;;;;;;25.25;6.93;;;;;;;7.96;72.28;95865.84;5072569;28;20057;-80
2022/09/30 03:16:46;;;;;;;10.50;6.40;;;;;;;7.97;72.45;95867.44;5058245;28;20056;-80
2022/09/30 03:19:33;;;;;;;10.23;5.88;;;;;;;8.01;72.98;95870.50;5057207;28;20041;-81
2022/09/30 03:22:18;;;;;;;10.45;6.05;;;;;;;8.04;72.29;95873.50;5055825;28;20052;-80
2022/09/30 03:25:00;;;;;;;8.73;6.60;;;;;;;8.04;72.11;95886.50;5057855;28;20561;-81
2022/09/30 03:27:35;;;;;;;8.90;6.20;;;;;;;8.04;71.63;95888.28;5056239;28;20048;-80
2022/09/30 03:30:07;;;;;;;9.38;6.72;;;;;;;8.04;71.32;95893.47;5044431;28;20091;-80
2022/09/30 03:32:52;;;;;;;7.70;5.80;;;;;;;7.94;69.72;95896.38;5052910;28;20079;-80
2022/09/30 03:35:30;;;;;;;8.02;5.47;;;;;;;7.84;69.94;95901.84;5036168;28;20076;-80
2022/09/30 03:38:04;;;;;;;6.72;4.88;;;;;;;7.78;70.17;95905.19;5042743;28;20503;-80
2022/09/30 03:40:41;;;;;;;8.23;5.85;;;;;;;7.78;71.06;95904.38;5055181;28;20083;-80
2022/09/30 03:43:17;;;;;;;6.72;5.28;;;;;;;7.81;73.74;95904.03;5055346;28;20052;-80
2022/09/30 03:45:51;;;;;;;6.47;5.13;;;;;;;7.84;72.98;95907.03;5055773;28;20083;-80
2022/09/30 03:48:20;;;;;;;6.43;5.20;;;;;;;7.88;73.72;95906.69;5055565;28;20052;-80
2022/09/30 03:50:49;;;;;;;8.60;6.43;;;;;;;7.92;75.09;95906.16;5054231;28;20049;-80
2022/09/30 03:53:17;;;;;;;9.50;5.80;;;;;;;7.93;74.91;95909.53;5054850;28;20045;-80
2022/09/30 03:55:51;;;;;;;9.00;5.60;;;;;;;7.92;73.03;95918.34;5054838;28;20053;-80
2022/09/30 03:58:20;;;;;;;5.40;4.50;;;;;;;7.94;74.79;95926.75;5055333;28;20052;-80
2022/09/30 04:00:51;;;;;;;7.70;5.68;;;;;;;7.94;75.86;95924.16;5053994;28;20052;-80
2022/09/30 04:03:20;;;;;;;8.50;4.82;;;;;;;7.91;73.70;95929.69;5055067;28;20073;-81
2022/09/30 04:05:50;;;;;;;6.15;4.63;;;;;;;7.84;73.97;95927.81;5055299;28;20053;-80
2022/09/30 04:08:17;;;;;;;8.02;4.57;;;;;;;7.84;74.43;95932.22;5054837;28;20049;-80
2022/09/30 04:10:45;;;;;;;6.20;4.38;;;;;;;7.77;72.42;95923.53;5055479;28;20075;-80
2022/09/30 04:13:13;;;;;;;8.32;4.30;;;;;;;7.74;72.37;95931.66;5055660;28;20053;-81
2022/09/30 04:15:41;;;;;;;6.75;4.75;;;;;;;7.72;71.80;95931.88;5045382;28;20392;-80
2022/09/30 04:18:08;;;;;;;6.43;4.82;;;;;;;7.75;72.94;95928.09;5055260;28;20075;-80
2022/09/30 04:20:38;;;;;;;9.82;5.60;;;;;;;7.75;71.89;95928.91;5053119;28;20102;-80
2022/09/30 04:23:07;;;;;;;7.68;4.25;;;;;;;7.70;71.13;95935.63;5052777;28;20075;-80
2022/09/30 04:25:34;;;;;;;7.05;4.50;;;;;;;7.62;71.14;95921.75;5048924;28;20044;-79
2022/09/30 04:28:02;;;;;;;6.38;4.07;;;;;;;7.58;71.35;95930.06;5041322;28;20049;-80
2022/09/30 04:30:30;;;;;;;6.28;3.92;;;;;;;7.54;71.29;95934.00;5042027;28;20045;-80
2022/09/30 04:33:01;;;;;;;6.95;3.92;;;;;;;7.52;72.65;95938.56;5047715;28;20529;-78
2022/09/30 04:35:29;;;;;;;5.85;4.18;;;;;;;7.57;73.86;95939.66;5042575;28;20057;-79
2022/09/30 04:37:56;;;;;;;7.28;4.78;;;;;;;7.61;73.66;95940.13;5040105;28;20131;-79
2022/09/30 04:40:25;;;;;;;6.10;4.88;;;;;;;7.62;74.27;95947.69;5052674;28;20507;-80
2022/09/30 04:42:57;;;;;;;5.78;4.50;;;;;;;7.60;72.08;95948.88;5056431;28;20056;-77
2022/09/30 04:45:25;;;;;;;9.25;5.35;;;;;;;7.58;73.25;95956.03;5057355;28;20053;-81
2022/09/30 04:47:53;;;;;;;6.10;5.30;;;;;;;7.62;75.43;95962.47;5059645;28;20092;-80
2022/09/30 04:50:21;;;;;;;7.95;4.63;;;;;;;7.65;75.81;95956.91;5055196;28;20049;-80
2022/09/30 04:52:53;;;;;;;5.93;5.20;;;;;;;7.66;76.29;95947.34;5057219;28;20049;-81
2022/09/30 04:55:21;;;;;;;6.80;5.00;;;;;;;7.61;74.62;95951.28;5051173;28;20490;-79
2022/09/30 04:57:50;;;;;;;6.10;4.57;;;;;;;7.57;73.37;95950.03;5050646;28;20045;-79
2022/09/30 05:00:19;;;;;;;6.70;5.05;;;;;;;7.51;73.11;95944.75;5049487;28;20056;-80
2022/09/30 05:02:46;;;;;;;6.15;4.55;;;;;;;7.48;74.19;95952.88;5050500;28;20052;-79
2022/09/30 05:05:14;;;;;;;5.28;4.63;;;;;;;7.52;76.15;95951.53;5050804;28;20469;-79
2022/09/30 05:07:42;;;;;;;5.13;4.18;;;;;;;7.56;76.71;95938.03;5050290;28;20063;-79
2022/09/30 05:10:10;;;;;;;11.57;4.63;;;;;;;7.59;75.85;95942.88;5049624;28;20056;-79
2022/09/30 05:12:39;;;;;;;5.22;4.72;;;;;;;7.62;76.66;95946.91;5052413;28;20045;-79
2022/09/30 05:15:09;;;;;;;5.63;4.80;;;;;;;7.62;76.17;95946.91;5052015;28;20461;-79
2022/09/30 05:17:37;;;;;;;7.20;5.10;;;;;;;7.61;76.01;95951.28;5052573;28;20491;-79
2022/09/30 05:20:09;;;;;;;7.72;4.90;;;;;;;7.61;76.73;95955.69;5051358;28;20418;-79
2022/09/30 05:22:37;;;;;;;6.28;5.43;;;;;;;7.62;77.26;95957.28;5052406;28;20499;-79
2022/09/30 05:25:05;;;;;;;8.35;5.05;;;;;;;7.62;76.82;95962.47;5052079;28;20098;-80
2022/09/30 05:27:33;;;;;;;5.78;5.05;;;;;;;7.63;77.09;95974.47;5051997;28;20457;-79
2022/09/30 05:30:00;;;;;;;7.18;5.72;;;;;;;7.64;77.04;95976.88;5051438;28;20561;-79
2022/09/30 05:32:30;;;;;;;6.20;5.55;;;;;;;7.62;77.01;95978.84;5052289;28;20053;-79
2022/09/30 05:34:58;;;;;;;6.97;5.10;;;;;;;7.61;76.65;95985.03;5051963;28;20469;-79
2022/09/30 05:37:25;;;;;;;6.63;5.72;;;;;;;7.62;77.57;95985.84;5051875;28;20198;-79
2022/09/30 05:39:54;;;;;;;10.50;6.38;;;;;;;7.59;76.49;95994.00;5051819;28;20053;-79
2022/09/30 05:42:21;;;;;;;7.22;5.85;;;;;;;7.51;74.18;95994.06;5051480;28;20064;-79
2022/09/30 05:44:49;;;;;;;6.88;5.43;;;;;;;7.45;75.84;95994.75;5054084;28;20049;-79
2022/09/30 05:47:16;;;;;;;7.70;5.70;;;;;;;7.46;77.40;95997.19;5055631;28;20118;-80
2022/09/30 05:49:45;;;;;;;9.38;6.13;;;;;;;7.47;76.88;96005.78;5055529;28;20091;-79
2022/09/30 05:52:13;;;;;;;7.68;5.78;;;;;;;7.46;77.56;95999.00;5059420;28;20052;-80
2022/09/30 05:54:41;;;;;;;9.75;6.38;;;;;;;7.51;78.87;96007.03;5071000;28;20049;-80
2022/09/30 05:57:09;;;;;;;8.73;6.70;;;;;;;7.56;79.28;96009.91;5064058;28;20064;-79
2022/09/30 05:59:37;;;;;;;8.48;6.93;;;;;;;7.61;79.10;96007.59;5056401;28;20457;-79
2022/09/30 06:02:04;;;;;;;10.70;5.82;;;;;;;7.60;77.28;96003.38;5054717;28;20054;-79
2022/09/30 06:04:32;;;;;;;9.07;6.35;;;;;;;7.59;77.51;96004.38;5055409;28;20055;-79
2022/09/30 06:07:01;;;;;;;10.30;6.28;;;;;;;7.58;77.36;95994.97;5055103;28;20056;-79
2022/09/30 06:09:34;;;;;;;8.45;6.82;;;;;;;7.57;77.30;95993.38;5055399;28;20048;-79
2022/09/30 06:12:02;;;;;;;12.75;6.25;;;;;;;7.57;77.18;96001.94;5054541;28;20053;-79
2022/09/30 06:14:30;;;;;;;8.65;6.25;;;;;;;7.61;77.21;96002.41;5055361;28;20049;-79
2022/09/30 06:16:59;;;;;;;8.40;6.18;;;;;;;7.64;77.40;96012.44;5055281;28;20079;-79
2022/09/30 06:19:29;;;;;;;8.43;6.05;;;;;;;7.65;76.60;96019.22;5054901;28;20060;-79
2022/09/30 06:21:56;;;;;;;9.52;6.15;;;;;;;7.73;77.53;96028.72;5054425;28;20053;-79
2022/09/30 06:24:26;;;;;;;8.82;6.75;;;;;;;7.77;78.59;96030.78;5055068;28;20049;-79
2022/09/30 06:26:53;;;;;;;9.02;6.47;;;;;;;7.84;78.10;96026.50;5054882;28;20053;-79
2022/09/30 06:29:21;;;;;;;9.68;7.22;;;;;;;7.92;78.21;96030.00;5055185;28;20056;-80
2022/09/30 06:31:48;;;;;;;10.00;6.15;;;;;;;8.00;78.44;96029.88;5054452;28;20051;-79
2022/09/30 06:34:16;;;;;;;8.70;6.43;;;;;;;8.09;77.91;96041.00;5054678;28;20053;-79
2022/09/30 06:36:44;;;;;;;9.70;6.38;;;;;;;8.18;77.69;96045.94;5054744;28;20499;-79
2022/09/30 06:39:11;;;;;;;7.75;6.25;;;;;;;8.30;77.79;96048.88;5054682;28;20605;-79
2022/09/30 06:41:42;;;;;;;8.80;6.45;;;;;;;8.41;77.29;96048.44;5053818;28;20041;-80
2022/09/30 06:44:11;;;;;;;11.52;6.65;;;;;;;8.51;75.71;96044.78;5054929;28;20048;-79
2022/09/30 06:46:39;;;;;;;9.50;7.07;;;;;;;8.62;76.57;96052.91;5054206;28;20094;-80
2022/09/30 06:49:20;;;;;;;9.10;7.13;;;;;;;8.80;77.03;96055.09;5054372;28;20495;-79
2022/09/30 06:51:50;;;;;;;9.73;6.95;;;;;;;8.97;77.32;96055.66;5053789;28;20049;-80
2022/09/30 06:54:18;;;;;;;11.65;7.20;;;;;;;9.16;76.60;96061.25;5054392;28;20049;-80
2022/09/30 06:56:48;;;;;;;11.25;7.85;;;;;;;9.31;76.34;96061.97;5054135;28;20049;-80
2022/09/30 06:59:16;;;;;;;11.90;8.25;;;;;;;9.46;76.45;96060.09;5054064;28;20095;-80
2022/09/30 07:01:45;;;;;;;13.80;7.75;;;;;;;9.62;75.09;96068.63;5053780;28;20136;-80
2022/09/30 07:04:13;;;;;;;10.63;7.57;;;;;;;9.82;75.85;96081.84;5054146;28;20056;-79
2022/09/30 07:06:40;;;;;;;7.30;5.95;;;;;;;9.98;74.19;96078.13;5054312;28;20470;-80
2022/09/30 07:09:09;;;;;;;8.05;5.32;;;;;;;10.16;72.63;96086.25;5053776;28;20048;-80
2022/09/30 07:11:37;;;;;;;6.68;5.00;;;;;;;10.36;73.15;96075.97;5052965;28;20426;-79
2022/09/30 07:14:06;;;;;;;7.63;5.43;;;;;;;10.61;73.78;96089.34;5053972;28;20056;-79
2022/09/30 07:16:34;;;;;;;6.97;4.97;;;;;;;10.86;74.39;96083.59;5053848;28;20411;-79
2022/09/30 07:19:02;;;;;;;12.55;6.53;;;;;;;11.07;71.81;96095.72;5053797;28;20056;-80
2022/09/30 07:21:31;;;;;;;8.38;5.97;;;;;;;11.24;72.26;96099.56;5052785;28;20044;-80
2022/09/30 07:23:58;;;;;;;10.32;6.38;;;;;;;11.40;71.17;96098.38;5053586;28;20049;-80
2022/09/30 07:26:27;;;;;;;6.05;4.43;;;;;;;11.54;70.24;96094.81;5053158;28;20052;-80
2022/09/30 07:28:55;;;;;;;7.10;3.40;;;;;;;11.70;68.61;96092.78;5053848;28;20049;-79
2022/09/30 07:31:26;;;;;;;6.25;3.75;;;;;;;11.86;68.27;96097.59;5053045;28;20045;-80
2022/09/30 07:34:01;;;;;;;3.55;2.83;;;;;;;12.05;68.48;96101.25;5053416;28;20078;-80
2022/09/30 07:36:30;;;;;;;3.38;3.08;;;;;;;12.22;67.03;96088.53;5053399;28;20053;-79
2022/09/30 07:39:04;;;;;;;5.00;3.35;;;;;;;12.36;66.51;96097.97;5053460;28;20056;-80
2022/09/30 07:41:34;;;;;;;6.60;3.47;;;;;;;12.50;66.47;96101.34;5053161;28;20045;-79
2022/09/30 07:44:04;;;;;;;5.82;3.30;;;;;;;12.66;65.59;96102.72;5053563;28;20079;-80
2022/09/30 07:46:37;;;;;;;3.75;3.33;;;;;;;12.85;64.15;96113.31;5053581;28;20049;-79
2022/09/30 07:49:07;;;;;;;4.78;3.30;;;;;;;13.02;64.21;96116.25;5053368;28;20388;-80
2022/09/30 07:51:37;;;;;;;4.32;3.78;;;;;;;13.14;62.75;96120.63;5052658;28;20049;-79
2022/09/30 07:54:07;;;;;;;5.93;4.13;;;;;;;13.25;62.11;96115.72;5053106;28;20491;-79
2022/09/30 07:56:37;;;;;;;5.50;3.58;;;;;;;13.33;62.06;96123.38;5052875;28;20053;-80
2022/09/30 07:59:26;;;;;;;5.45;3.22;;;;;;;13.39;61.79;96130.41;5052920;28;20068;-80
2022/09/30 08:01:55;;;;;;;8.43;4.00;;;;;;;13.41;61.26;96130.19;5051979;28;20045;-80
2022/09/30 08:04:24;;;;;;;5.30;3.75;;;;;;;13.39;60.73;96123.34;5052881;28;20514;-80
2022/09/30 08:06:54;;;;;;;5.80;3.65;;;;;;;13.36;61.44;96123.75;5052351;28;20057;-80
2022/09/30 08:09:24;;;;;;;5.72;4.03;;;;;;;13.35;61.98;96122.16;5053166;28;20524;-80
2022/09/30 08:11:52;;;;;;;5.35;3.65;;;;;;;13.31;61.48;96125.41;5052321;28;20586;-80
2022/09/30 08:14:22;;;;;;;4.60;3.60;;;;;;;13.26;61.67;96133.06;5052649;28;20044;-80
2022/09/30 08:16:50;;;;;;;6.57;4.05;;;;;;;13.22;61.54;96124.00;5052574;28;20045;-80
2022/09/30 08:19:21;;;;;;;7.28;4.03;;;;;;;13.16;61.45;96128.25;5052565;28;20135;-80
2022/09/30 08:21:49;;;;;;;7.43;4.40;;;;;;;13.16;61.60;96134.31;5077153;22;20049;-82
2022/09/30 08:24:17;;;;;;;9.15;5.05;;;;;;;13.23;61.72;96138.69;5063170;28;20513;-80
2022/09/30 08:26:45;;;;;;;7.30;4.85;;;;;;;13.29;61.62;96143.94;5063918;28;20060;-81
2022/09/30 08:29:13;;;;;;;5.88;4.57;;;;;;;13.37;62.15;96142.91;5063422;28;20041;-81
2022/09/30 08:31:51;;;;;;;6.40;4.18;;;;;;;13.49;62.75;96149.09;5062405;28;20132;-80
2022/09/30 08:34:20;;;;;;;6.72;4.30;;;;;;;13.60;62.84;96158.88;5064303;28;20139;-81
2022/09/30 08:36:48;;;;;;;7.47;4.85;;;;;;;13.68;61.42;96154.41;5063575;28;20053;-80
2022/09/30 08:39:16;;;;;;;6.88;5.22;;;;;;;13.72;61.13;96152.97;5062829;28;20060;-79
2022/09/30 08:42:05;;;;;;;7.22;4.57;;;;;;;13.78;62.39;96165.22;5061725;28;20648;-81
2022/09/30 08:44:48;;;;;;;7.65;4.60;;;;;;;13.81;60.61;96162.16;5062199;28;20045;-80
2022/09/30 08:47:31;;;;;;;7.60;5.03;;;;;;;13.79;59.97;96165.00;5064896;28;20056;-81
2022/09/30 08:50:09;;;;;;;;;;;;;;;13.76;60.66;96167.25;5065532;28;20049;-80
2022/09/30 08:52:41;;;;;;;5.80;4.50;;;;;;;13.70;60.91;96170.72;5065888;28;19944;-78
2022/09/30 08:55:21;;;;;;;8.00;4.95;;;;;;;13.69;61.41;96175.16;5064666;28;20044;-81
2022/09/30 08:57:51;;;;;;;8.23;4.70;;;;;;;13.67;60.99;96177.19;5063552;28;20049;-81
2022/09/30 09:00:21;;;;;;;7.35;5.68;;;;;;;13.66;60.52;96170.31;5062842;28;20049;-81
2022/09/30 09:02:52;;;;;;;7.18;5.25;;;;;;;13.65;60.85;96173.19;5061690;28;20144;-79
2022/09/30 09:05:33;;;;;;;6.97;5.25;;;;;;;13.64;61.46;96172.34;5062951;28;20061;-79
2022/09/30 09:08:07;;;;;;;9.43;5.35;;;;;;;13.69;61.25;96174.38;5063740;28;20061;-80
2022/09/30 09:10:43;;;;;;;6.47;4.47;;;;;;;13.71;61.90;96167.91;5064868;28;20052;-80
2022/09/30 09:13:28;;;;;;;6.75;4.72;;;;;;;13.75;63.60;96171.69;5064725;28;20044;-80
2022/09/30 09:16:03;;;;;;;6.05;4.82;;;;;;;13.80;65.09;96171.06;5063015;28;20053;-82
2022/09/30 09:18:41;;;;;;;7.20;5.00;;;;;;;13.81;64.62;96173.44;5062004;28;20049;-81
2022/09/30 09:21:21;;;;;;;10.32;6.07;;;;;;;13.78;62.08;96178.34;5065972;28;20053;-79
2022/09/30 09:23:51;;;;;;;9.02;6.03;;;;;;;13.73;61.90;96178.16;5066326;28;20469;-78
2022/09/30 09:26:19;;;;;;;8.68;6.30;;;;;;;13.69;61.96;96180.41;5067913;28;20052;-78
2022/09/30 09:28:59;;;;;;;9.20;6.88;;;;;;;13.67;61.27;96179.81;5066540;28;20056;-79
2022/09/30 09:31:27;;;;;;;8.45;5.75;;;;;;;13.71;61.62;96172.31;5066925;28;20095;-79
2022/09/30 09:33:59;;;;;;;6.82;5.72;;;;;;;13.81;62.52;96177.91;5067389;28;20056;-80
2022/09/30 09:36:45;;;;;;;7.72;6.50;;;;;;;13.96;60.96;96188.09;5066883;28;20045;-78
2022/09/30 09:39:31;;;;;;;7.05;6.28;;;;;;;14.06;60.09;96187.59;5070042;28;20068;-80
2022/09/30 09:42:09;;;;;;;8.10;6.30;;;;;;;14.15;60.14;96192.38;5068322;28;20045;-80
2022/09/30 09:44:47;;;;;;;5.35;4.68;;;;;;;14.26;63.00;96196.13;5071067;28;20084;-84
2022/09/30 09:47:15;;;;;;;6.53;5.07;;;;;;;14.37;61.86;96197.25;5070982;28;20370;-81
2022/09/30 09:49:45;;;;;;;6.75;5.15;;;;;;;14.46;61.65;96192.53;5070869;28;20453;-79
2022/09/30 09:52:38;;;;;;;8.27;5.72;;;;;;;14.53;59.87;96190.66;5069546;28;20049;-81
2022/09/30 09:55:10;;;;;;;7.38;5.57;;;;;;;14.57;60.09;96191.84;5069738;28;20061;-82
2022/09/30 09:57:39;;;;;;;10.07;5.10;;;;;;;14.57;59.12;96183.97;5069619;28;20480;-79
2022/09/30 10:03:00;;;;;;;5.00;4.45;;;;;;;14.68;60.47;96188.50;5068798;28;20051;-81
2022/09/30 10:05:29;;;;;;;7.07;6.10;;;;;;;14.76;59.91;96190.84;5068742;28;20046;-80
2022/09/30 10:08:12;;;;;;;7.47;5.57;;;;;;;14.81;59.15;96192.81;5069050;28;20107;-80
2022/09/30 10:10:47;;;;;;;7.43;5.05;;;;;;;14.94;62.53;96202.38;5067970;28;20057;-79
2022/09/30 10:13:20;;;;;;;5.93;5.10;;;;;;;15.06;60.03;96205.88;5068616;28;20049;-80
2022/09/30 10:15:48;;;;;;;7.40;5.45;;;;;;;15.12;59.19;96215.50;5067997;28;20056;-79
2022/09/30 10:18:20;;;;;;;6.03;4.50;;;;;;;15.17;58.65;96207.75;5067237;28;20056;-80
2022/09/30 10:20:53;;;;;;;5.97;4.25;;;;;;;15.28;58.15;96213.31;5069066;28;20411;-79
2022/09/30 10:23:26;;;;;;;6.53;4.22;;;;;;;15.45;60.05;96214.31;5070146;28;20045;-84
2022/09/30 10:25:56;;;;;;;7.35;5.13;;;;;;;15.65;58.92;96209.59;5069614;28;20049;-82
2022/09/30 10:28:26;;;;;;;10.20;5.85;;;;;;;15.80;57.47;96200.53;5069114;28;20064;-79
2022/09/30 10:31:01;;;;;;;7.03;5.07;;;;;;;15.91;58.63;96205.00;5066749;28;20101;-79
2022/09/30 10:33:34;;;;;;;5.95;4.78;;;;;;;16.01;57.21;96207.91;5067950;28;20045;-81
2022/09/30 10:36:15;;;;;;;7.10;5.63;;;;;;;16.09;56.61;96213.84;5067093;28;20084;-81
2022/09/30 10:38:55;;;;;;;8.50;4.60;;;;;;;16.06;55.73;96213.28;5067203;28;20053;-80
2022/09/30 10:41:29;;;;;;;8.70;5.05;;;;;;;16.05;56.20;96219.56;5067404;28;20486;-81
2022/09/30 10:43:59;;;;;;;8.48;5.50;;;;;;;16.04;55.77;96210.06;5066951;28;20045;-80
2022/09/30 10:46:30;;;;;;;7.43;4.90;;;;;;;16.03;55.32;96211.09;5067315;28;20049;-82
2022/09/30 10:48:59;;;;;;;8.15;5.63;;;;;;;16.08;55.62;96217.53;5066333;28;20401;-81
2022/09/30 10:51:35;;;;;;;9.80;5.53;;;;;;;16.23;57.79;96223.16;5064658;28;20558;-80
2022/09/30 10:54:05;;;;;;;9.07;6.82;;;;;;;16.42;55.29;96229.94;5065124;28;20041;-78
2022/09/30 10:56:44;;;;;;;9.98;7.40;;;;;;;16.52;54.55;96233.84;5064023;28;20461;-82
2022/09/30 10:59:19;;;;;;;10.23;7.05;;;;;;;16.56;54.44;96229.72;5063228;28;20075;-81
2022/09/30 11:01:53;;;;;;;10.95;8.15;;;;;;;16.61;54.94;96227.19;5062383;28;20118;-80
2022/09/30 11:04:32;;;;;;;10.20;7.97;;;;;;;16.65;53.64;96238.88;5063506;28;20116;-84
2022/09/30 11:07:12;;;;;;;9.50;7.60;;;;;;;16.66;53.11;96225.50;5062963;28;20057;-80
2022/09/30 11:09:47;;;;;;;9.95;7.22;;;;;;;16.65;53.03;96237.03;5062988;28;20048;-80
2022/09/30 11:12:20;;;;;;;8.43;6.57;;;;;;;16.63;53.93;96248.84;5061953;28;20053;-80
2022/09/30 11:14:57;;;;;;;9.35;7.40;;;;;;;16.63;53.97;96247.00;5061752;28;20403;-79
2022/09/30 11:17:33;;;;;;;11.30;7.32;;;;;;;16.61;53.66;96235.88;5062210;28;20527;-80
2022/09/30 11:20:12;;;;;;;9.82;6.43;;;;;;;16.60;52.85;96238.78;5061092;28;20048;-82
2022/09/30 11:22:45;;;;;;;10.05;7.25;;;;;;;16.55;53.60;96231.56;5061548;28;20077;-81
2022/09/30 11:25:19;;;;;;;8.60;6.75;;;;;;;16.60;53.35;96236.13;5061219;28;20044;-79
2022/09/30 11:27:58;;;;;;;9.55;6.43;;;;;;;16.72;54.76;96241.41;5060183;28;20057;-81
2022/09/30 11:30:36;;;;;;;7.63;5.82;;;;;;;16.84;52.92;96237.75;5059514;28;20044;-79
2022/09/30 11:33:17;;;;;;;8.45;5.88;;;;;;;16.93;52.65;96240.06;5060501;28;20071;-78
2022/09/30 11:35:54;;;;;;;5.78;4.78;;;;;;;16.99;52.43;96239.09;5060223;28;20131;-81
2022/09/30 11:38:45;;;;;;;6.55;4.95;;;;;;;17.01;51.08;96242.31;5064172;28;20511;-82
2022/09/30 11:41:22;;;;;;;8.27;5.10;;;;;;;17.01;50.91;96237.03;5065479;28;20048;-82
2022/09/30 11:43:59;;;;;;;5.95;5.07;;;;;;;17.04;53.61;96233.97;5066598;28;20095;-79
2022/09/30 11:46:46;;;;;;;9.00;6.82;;;;;;;17.06;51.60;96226.63;5066707;28;20084;-80
2022/09/30 11:49:35;;;;;;;8.30;6.50;;;;;;;17.09;51.43;96223.53;5065270;28;20106;-80
2022/09/30 11:52:13;;;;;;;7.53;5.43;;;;;;;17.15;51.51;96227.88;5069866;28;20055;-82
2022/09/30 11:54:59;;;;;;;5.65;4.65;;;;;;;17.22;51.00;96219.84;5070322;28;20055;-80
2022/09/30 11:57:34;;;;;;;7.88;4.65;;;;;;;17.45;49.95;96221.63;5069909;28;20499;-81
2022/09/30 12:00:09;;;;;;;5.00;4.22;;;;;;;17.73;48.98;96228.72;5069501;28;20049;-81
2022/09/30 12:02:39;;;;;;;4.53;3.80;;;;;;;18.01;48.47;96225.28;5068409;28;20053;-81
2022/09/30 12:05:11;;;;;;;5.38;3.58;;;;;;;18.23;47.06;96224.59;5068656;28;20072;-81